^^
Meteo Knjazevac Station Historical Data
Daily Summary for July 14, 2021 Units:  Both    English   Metric
Daily Weekly Monthly Yearly Custom
  High: Low: Average:
Temperature: 56.7 °F /  13.7 °C 49.3 °F /  9.6 °C 52.5 °F /  11.4 °C
Dew Point: 46.4 °F /  8 °C 43.7 °F /  6.5 °C 45.1 °F /  7.3 °C
Humidity: 81% 68% 76%
Wind Speed: 2mph /  3.2km/h - 1.1mph /  1.8km/h
Wind Gust: 5mph /  8km/h - -
Wind- - WNW
Pressure: 30.10 in /  1019.2 hPa 30.08 in /  1018.5 hPa -
Precipitation: 0.00 in /  0 mm    
Historical Graphs
 
 
Tabular Data for July 14, 2021
Time Temperature Dew Point Pressure Wind Wind Speed Wind Gust Humidity Rainfall Rate (Hourly) solar Conditions
00:00 56.7 °F /  13.7 °C 46.2 °F /  7.9 °C 30.08in /  1018.5hPa NW 1mph /  1.6km/h 3mph /  4.8km/h 68% 0.00in /  0mm 0 W/m2
00:10 56.5 °F /  13.6 °C 46.4 °F /  8 °C 30.08in /  1018.5hPa WNW 1mph /  1.6km/h 3mph /  4.8km/h 69% 0.00in /  0mm 0 W/m2
00:20 56.1 °F /  13.4 °C 46 °F /  7.8 °C 30.08in /  1018.5hPa WNW 1mph /  1.6km/h 2mph /  3.2km/h 69% 0.00in /  0mm 0 W/m2
00:30 55.6 °F /  13.1 °C 45.9 °F /  7.7 °C 30.08in /  1018.5hPa NW 1mph /  1.6km/h 2mph /  3.2km/h 70% 0.00in /  0mm 0 W/m2
00:40 55 °F /  12.8 °C 45.4 °F /  7.4 °C 30.08in /  1018.5hPa Calm   3mph /  4.8km/h 70% 0.00in /  0mm 0 W/m2
00:50 54.7 °F /  12.6 °C 45.8 °F /  7.7 °C 30.08in /  1018.5hPa West 1mph /  1.6km/h 3mph /  4.8km/h 72% 0.00in /  0mm 0 W/m2
01:00 54.4 °F /  12.4 °C 46 °F /  7.8 °C 30.08in /  1018.5hPa West 2mph /  3.2km/h 4mph /  6.4km/h 73% 0.00in /  0mm 0 W/m2
01:10 54.3 °F /  12.4 °C 45.8 °F /  7.7 °C 30.08in /  1018.5hPa West 1mph /  1.6km/h 4mph /  6.4km/h 73% 0.00in /  0mm 0 W/m2
01:20 54 °F /  12.2 °C 45.5 °F /  7.5 °C 30.08in /  1018.5hPa WNW 1mph /  1.6km/h 3mph /  4.8km/h 73% 0.00in /  0mm 0 W/m2
01:30 53.8 °F /  12.1 °C 45.7 °F /  7.6 °C 30.08in /  1018.5hPa NW 1mph /  1.6km/h 3mph /  4.8km/h 74% 0.00in /  0mm 0 W/m2
01:40 53.4 °F /  11.9 °C 45.3 °F /  7.4 °C 30.08in /  1018.5hPa NW 1mph /  1.6km/h 4mph /  6.4km/h 74% 0.00in /  0mm 0 W/m2
01:50 53 °F /  11.7 °C 45.3 °F /  7.4 °C 30.08in /  1018.5hPa Calm   3mph /  4.8km/h 75% 0.00in /  0mm 0 W/m2
02:00 52.5 °F /  11.4 °C 44.8 °F /  7.1 °C 30.08in /  1018.5hPa Calm   3mph /  4.8km/h 75% 0.00in /  0mm 0 W/m2
02:10 52 °F /  11.1 °C 45 °F /  7.2 °C 30.08in /  1018.5hPa West 2mph /  3.2km/h 5mph /  8km/h 77% 0.00in /  0mm 0 W/m2
02:20 51.8 °F /  11 °C 44.8 °F /  7.1 °C 30.08in /  1018.5hPa WNW 1mph /  1.6km/h 4mph /  6.4km/h 77% 0.00in /  0mm 0 W/m2
02:30 51.6 °F /  10.9 °C 45 °F /  7.2 °C 30.08in /  1018.5hPa WNW 1mph /  1.6km/h 3mph /  4.8km/h 78% 0.00in /  0mm 0 W/m2
02:40 51.6 °F /  10.9 °C 45 °F /  7.2 °C 30.08in /  1018.5hPa WNW 2mph /  3.2km/h 5mph /  8km/h 78% 0.00in /  0mm 0 W/m2
02:50 51.6 °F /  10.9 °C 45 °F /  7.2 °C 30.08in /  1018.5hPa WNW 1mph /  1.6km/h 4mph /  6.4km/h 78% 0.00in /  0mm 0 W/m2
03:00 51.4 °F /  10.8 °C 45.1 °F /  7.3 °C 30.08in /  1018.5hPa WNW 1mph /  1.6km/h 4mph /  6.4km/h 79% 0.00in /  0mm 0 W/m2
03:10 50.9 °F /  10.5 °C 44.6 °F /  7 °C 30.09in /  1018.8hPa WNW 1mph /  1.6km/h 2mph /  3.2km/h 79% 0.00in /  0mm 0 W/m2
03:20 50.7 °F /  10.4 °C 44.4 °F /  6.9 °C 30.09in /  1018.8hPa WNW 1mph /  1.6km/h 3mph /  4.8km/h 79% 0.00in /  0mm 0 W/m2
03:30 50.4 °F /  10.2 °C 44.4 °F /  6.9 °C 30.09in /  1018.8hPa WNW 2mph /  3.2km/h 3mph /  4.8km/h 80% 0.00in /  0mm 0 W/m2
03:40 50.3 °F /  10.2 °C 44.4 °F /  6.9 °C 30.09in /  1018.8hPa WNW 1mph /  1.6km/h 4mph /  6.4km/h 80% 0.00in /  0mm 0 W/m2
03:50 50 °F /  10 °C 44.1 °F /  6.7 °C 30.09in /  1018.8hPa NW 1mph /  1.6km/h 2mph /  3.2km/h 80% 0.00in /  0mm 0 W/m2
04:00 49.8 °F /  9.9 °C 44.2 °F /  6.8 °C 30.09in /  1018.8hPa WNW 2mph /  3.2km/h 3mph /  4.8km/h 81% 0.00in /  0mm 0 W/m2
04:10 49.6 °F /  9.8 °C 44 °F /  6.7 °C 30.09in /  1018.8hPa West 2mph /  3.2km/h 3mph /  4.8km/h 81% 0.00in /  0mm 0 W/m2
04:20 49.6 °F /  9.8 °C 44 °F /  6.7 °C 30.10in /  1019.2hPa WNW 1mph /  1.6km/h 3mph /  4.8km/h 81% 0.00in /  0mm 0 W/m2
04:30 49.3 °F /  9.6 °C 43.7 °F /  6.5 °C 30.09in /  1018.8hPa Calm   2mph /  3.2km/h 81% 0.00in /  0mm 0 W/m2
Knjazevac, Serbia
Compliments of Weather Underground - 2 mb